createdAt,value
2022-10-17T00:00:55.476Z,101483.94
2022-10-17T00:05:06.693Z,101494.50
2022-10-17T00:09:09.655Z,101493.13
2022-10-17T00:13:12.312Z,101511.13
2022-10-17T00:17:15.501Z,101507.13
2022-10-17T00:21:21.041Z,101507.94
2022-10-17T00:25:22.983Z,101501.50
2022-10-17T00:29:24.602Z,101502.47
2022-10-17T00:33:28.099Z,101496.59
2022-10-17T00:37:33.691Z,101502.72
2022-10-17T00:41:35.811Z,101495.34
2022-10-17T00:45:40.455Z,101505.00
2022-10-17T00:49:42.478Z,101498.94
2022-10-17T00:53:44.347Z,101513.06
2022-10-17T00:57:46.978Z,101513.19
2022-10-17T01:02:00.677Z,101516.13
2022-10-17T01:06:02.619Z,101513.44
2022-10-17T01:10:06.138Z,101513.63
2022-10-17T01:14:27.116Z,101513.69
2022-10-17T01:19:01.473Z,101513.50
2022-10-17T01:23:16.194Z,101512.50
2022-10-17T01:27:36.173Z,101521.69
2022-10-17T01:31:47.363Z,101531.09
2022-10-17T01:36:04.787Z,101522.63
2022-10-17T01:40:25.821Z,101514.56
2022-10-17T01:45:10.254Z,101513.81
2022-10-17T01:49:15.722Z,101508.94
2022-10-17T01:53:35.792Z,101516.47
2022-10-17T01:57:42.280Z,101529.13
2022-10-17T02:01:47.408Z,101524.72
2022-10-17T02:05:50.530Z,101506.84
2022-10-17T02:09:52.540Z,101517.69
2022-10-17T02:14:13.307Z,101520.47
2022-10-17T02:18:38.149Z,101521.38
2022-10-17T02:22:47.587Z,101519.09
2022-10-17T02:27:12.260Z,101526.28
2022-10-17T02:31:18.149Z,101521.31
2022-10-17T02:35:22.299Z,101533.06
2022-10-17T02:39:26.970Z,101527.44
2022-10-17T02:43:31.355Z,101545.09
2022-10-17T02:47:54.067Z,101550.75
2022-10-17T02:52:07.506Z,101550.25
2022-10-17T02:56:18.194Z,101550.06
2022-10-17T03:00:23.645Z,101544.66
2022-10-17T03:04:25.644Z,101554.47
2022-10-17T03:08:27.384Z,101562.16
2022-10-17T03:12:31.195Z,101568.59
2022-10-17T03:16:33.541Z,101581.41
2022-10-17T03:20:35.792Z,101588.50
2022-10-17T03:24:37.421Z,101581.53
2022-10-17T03:28:39.773Z,101586.53
2022-10-17T03:32:41.462Z,101586.41
2022-10-17T03:36:43.724Z,101595.06
2022-10-17T03:40:54.962Z,101595.72
2022-10-17T03:44:56.941Z,101600.13
2022-10-17T03:48:58.630Z,101601.66
2022-10-17T03:53:00.597Z,101589.75
2022-10-17T03:57:02.539Z,101594.81
2022-10-17T04:01:06.186Z,101603.22
2022-10-17T04:05:08.286Z,101603.22
2022-10-17T04:09:11.017Z,101600.94
2022-10-17T04:13:39.000Z,101609.19
2022-10-17T04:17:41.326Z,101618.41
2022-10-17T04:21:44.087Z,101620.50
2022-10-17T04:25:46.179Z,101625.13
2022-10-17T04:29:48.230Z,101631.81
2022-10-17T04:33:54.495Z,101633.19
2022-10-17T04:37:56.749Z,101637.44
2022-10-17T04:42:00.147Z,101639.94
2022-10-17T04:46:04.975Z,101642.44
2022-10-17T04:50:06.956Z,101638.81
2022-10-17T04:54:10.511Z,101639.88
2022-10-17T04:58:14.904Z,101645.41
2022-10-17T05:02:17.120Z,101663.00
2022-10-17T05:06:23.032Z,101645.53
2022-10-17T05:10:46.206Z,101643.19
2022-10-17T05:14:48.650Z,101658.28
2022-10-17T05:18:53.943Z,101673.72
2022-10-17T05:22:55.880Z,101687.91
2022-10-17T05:26:58.320Z,101705.00
2022-10-17T05:31:07.567Z,101696.81
2022-10-17T05:35:09.568Z,101692.50
2022-10-17T05:39:14.844Z,101695.75
2022-10-17T05:43:17.587Z,101697.47
2022-10-17T05:47:20.629Z,101717.38
2022-10-17T05:51:22.527Z,101725.50
2022-10-17T05:55:24.518Z,101738.38
2022-10-17T05:59:27.886Z,101732.09
2022-10-17T06:03:35.507Z,101737.72
2022-10-17T06:07:41.053Z,101734.53
2022-10-17T06:11:43.227Z,101732.44
2022-10-17T06:15:46.213Z,101729.03
2022-10-17T06:19:48.036Z,101725.09
2022-10-17T06:23:51.428Z,101737.28
2022-10-17T06:28:11.082Z,101750.97
2022-10-17T06:32:15.103Z,101748.84
2022-10-17T06:36:28.521Z,101743.53
2022-10-17T06:40:30.372Z,101746.88
2022-10-17T06:44:32.403Z,101765.84
2022-10-17T06:48:57.731Z,101765.78
2022-10-17T06:53:04.994Z,101757.13
2022-10-17T06:57:25.219Z,101754.41
2022-10-17T07:01:37.384Z,101758.69
2022-10-17T07:05:39.752Z,101753.13
2022-10-17T07:09:41.824Z,101737.56
2022-10-17T07:13:44.039Z,101746.41
2022-10-17T07:17:50.325Z,101730.75
2022-10-17T07:21:54.317Z,101730.00
2022-10-17T07:26:01.582Z,101729.91
2022-10-17T07:30:04.236Z,101711.06
2022-10-17T07:34:14.505Z,101720.03
2022-10-17T07:38:16.440Z,101696.47
2022-10-17T07:42:18.229Z,101693.13
2022-10-17T07:46:20.094Z,101692.78
2022-10-17T07:50:22.181Z,101698.41
2022-10-17T07:54:23.992Z,101707.00
2022-10-17T07:58:26.251Z,101700.97
2022-10-17T08:02:28.375Z,101698.53
2022-10-17T08:06:30.381Z,101706.63
2022-10-17T08:10:32.170Z,101716.28
2022-10-17T08:14:34.042Z,101722.31
2022-10-17T08:18:36.858Z,101729.41
2022-10-17T08:22:39.050Z,101725.63
2022-10-17T08:26:43.426Z,101728.16
2022-10-17T08:30:46.433Z,101725.19
2022-10-17T08:34:48.490Z,101730.22
2022-10-17T08:38:52.834Z,101732.75
2022-10-17T08:43:08.457Z,101725.72
2022-10-17T08:47:16.336Z,101717.31
2022-10-17T08:51:27.558Z,101716.91
2022-10-17T08:55:37.852Z,101714.84
2022-10-17T08:59:43.650Z,101733.66
2022-10-17T09:04:16.617Z,101740.69
2022-10-17T09:08:33.751Z,101736.78
2022-10-17T09:13:22.709Z,101739.66
2022-10-17T09:17:31.098Z,101758.25
2022-10-17T09:21:51.713Z,101747.72
2022-10-17T09:25:55.125Z,101762.38
2022-10-17T09:30:21.431Z,101766.03
2022-10-17T09:34:35.226Z,101788.19
2022-10-17T09:38:42.973Z,101803.34
2022-10-17T09:42:47.145Z,101795.06
2022-10-17T09:47:18.333Z,101799.66
2022-10-17T09:51:25.595Z,101805.47
2022-10-17T09:55:48.300Z,101809.53
2022-10-17T10:00:04.299Z,101800.00
2022-10-17T10:04:17.398Z,101800.50
2022-10-17T10:08:19.797Z,101794.88
2022-10-17T10:12:33.770Z,101793.84
2022-10-17T10:16:43.239Z,101805.22
2022-10-17T10:20:46.787Z,101788.38
2022-10-17T10:25:07.811Z,101791.38
2022-10-17T10:29:32.163Z,101788.19
2022-10-17T10:33:41.771Z,101792.00
2022-10-17T10:37:48.684Z,101797.34
2022-10-17T10:41:50.721Z,101794.31
2022-10-17T10:45:53.421Z,101802.28
2022-10-17T10:50:29.223Z,101799.75
2022-10-17T10:54:42.266Z,101790.53
2022-10-17T10:58:47.347Z,101786.63
2022-10-17T11:02:56.570Z,101796.44
2022-10-17T11:07:23.073Z,101792.78
2022-10-17T11:11:32.129Z,101799.56
2022-10-17T11:15:59.232Z,101800.91
2022-10-17T11:20:15.621Z,101796.81
2022-10-17T11:24:40.862Z,101790.59
2022-10-17T11:28:42.571Z,101792.44
2022-10-17T11:32:50.759Z,101795.75
2022-10-17T11:36:57.852Z,101801.41
2022-10-17T11:41:00.195Z,101802.63
2022-10-17T11:45:09.416Z,101797.09
2022-10-17T11:49:20.629Z,101792.50
2022-10-17T11:53:31.208Z,101788.25
2022-10-17T11:57:56.094Z,101797.91
2022-10-17T12:02:05.264Z,101802.09
2022-10-17T12:06:16.750Z,101806.28
2022-10-17T12:10:31.368Z,101806.31
2022-10-17T12:14:45.768Z,101800.81
2022-10-17T12:18:51.204Z,101802.34
2022-10-17T12:23:20.023Z,101793.66
2022-10-17T12:27:48.234Z,101801.63
2022-10-17T12:31:50.102Z,101796.72
2022-10-17T12:36:26.946Z,101784.09
2022-10-17T12:40:34.815Z,101777.16
2022-10-17T12:44:37.986Z,101779.38
2022-10-17T12:48:39.841Z,101777.88
2022-10-17T12:52:41.481Z,101770.00
2022-10-17T12:56:47.541Z,101768.31
2022-10-17T13:01:19.088Z,101766.00
2022-10-17T13:05:32.749Z,101756.47
2022-10-17T13:09:42.604Z,101762.59
2022-10-17T13:13:50.358Z,101762.88
2022-10-17T13:17:57.305Z,101761.81
2022-10-17T13:22:06.932Z,101769.00
2022-10-17T13:26:20.197Z,101762.66
2022-10-17T13:30:26.685Z,101773.19
2022-10-17T13:34:32.622Z,101764.50
2022-10-17T13:38:38.970Z,101772.16
2022-10-17T13:42:43.840Z,101756.88
2022-10-17T13:46:46.066Z,101744.84
2022-10-17T13:50:50.812Z,101744.84
2022-10-17T13:54:53.911Z,101742.63
2022-10-17T13:59:04.965Z,101740.97
2022-10-17T14:03:07.145Z,101738.44
2022-10-17T14:08:10.877Z,101728.72
2022-10-17T14:12:13.715Z,101728.56
2022-10-17T14:16:15.803Z,101725.56
2022-10-17T14:20:57.533Z,101718.00
2022-10-17T14:24:43.474Z,101709.91
2022-10-17T14:28:49.103Z,101712.59
2022-10-17T14:32:58.806Z,101696.38
2022-10-17T14:37:02.598Z,101673.06
2022-10-17T14:41:44.853Z,101661.09
2022-10-17T14:45:47.011Z,101665.84
2022-10-17T14:50:04.941Z,101638.44
2022-10-17T14:54:26.042Z,101639.75
2022-10-17T14:58:30.772Z,101632.41
2022-10-17T15:02:32.919Z,101632.78
2022-10-17T15:06:35.289Z,101633.72
2022-10-17T15:10:37.697Z,101617.94
2022-10-17T15:14:39.296Z,101605.66
2022-10-17T15:18:41.210Z,101600.63
2022-10-17T15:22:43.276Z,101596.81
2022-10-17T15:26:45.179Z,101597.59
2022-10-17T15:30:46.859Z,101584.75
2022-10-17T15:34:48.776Z,101584.91
2022-10-17T15:38:53.186Z,101576.97
2022-10-17T15:42:59.047Z,101567.53
2022-10-17T15:47:01.593Z,101555.03
2022-10-17T15:51:03.466Z,101556.63
2022-10-17T15:55:05.682Z,101558.09
2022-10-17T15:59:13.866Z,101558.91
2022-10-17T16:03:15.605Z,101561.84
2022-10-17T16:07:19.290Z,101569.31
2022-10-17T16:11:30.684Z,101562.06
2022-10-17T16:15:32.572Z,101558.41
2022-10-17T16:19:34.270Z,101558.72
2022-10-17T16:23:36.200Z,101560.00
2022-10-17T16:27:38.602Z,101572.59
2022-10-17T16:31:43.372Z,101571.94
2022-10-17T16:35:46.693Z,101569.19
2022-10-17T16:39:52.438Z,101565.91
2022-10-17T16:43:57.370Z,101557.97
2022-10-17T16:47:59.348Z,101555.88
2022-10-17T16:52:01.317Z,101561.34
2022-10-17T16:56:04.604Z,101561.81
2022-10-17T17:00:07.175Z,101557.66
2022-10-17T17:04:09.493Z,101563.41
2022-10-17T17:08:12.623Z,101567.13
2022-10-17T17:12:14.815Z,101562.88
2022-10-17T17:16:21.448Z,101559.78
2022-10-17T17:20:23.424Z,101564.50
2022-10-17T17:24:25.533Z,101572.34
2022-10-17T17:28:27.919Z,101572.78
2022-10-17T17:32:29.763Z,101579.56
2022-10-17T17:36:34.702Z,101588.84
2022-10-17T17:40:36.410Z,101586.28
2022-10-17T17:44:38.367Z,101587.41
2022-10-17T17:48:41.595Z,101582.81
2022-10-17T17:52:45.591Z,101589.19
2022-10-17T17:56:47.489Z,101582.97
2022-10-17T18:00:49.380Z,101584.78
2022-10-17T18:04:51.052Z,101580.00
2022-10-17T18:08:55.849Z,101596.00
2022-10-17T18:12:57.522Z,101607.34
2022-10-17T18:16:59.371Z,101609.06
2022-10-17T18:21:01.306Z,101599.75
2022-10-17T18:25:03.407Z,101598.66
2022-10-17T18:29:05.280Z,101595.81
2022-10-17T18:33:07.272Z,101588.53
2022-10-17T18:37:09.010Z,101594.38
2022-10-17T18:41:16.260Z,101589.09
2022-10-17T18:45:18.075Z,101593.09
2022-10-17T18:49:21.667Z,101578.03
2022-10-17T18:53:23.377Z,101585.19
2022-10-17T18:57:26.265Z,101583.50
2022-10-17T19:01:28.721Z,101583.41
2022-10-17T19:05:30.433Z,101585.25
2022-10-17T19:09:32.384Z,101588.94
2022-10-17T19:13:35.317Z,101590.03
2022-10-17T19:17:37.212Z,101586.56
2022-10-17T19:21:40.024Z,101583.91
2022-10-17T19:25:41.842Z,101586.22
2022-10-17T19:29:44.070Z,101594.72
2022-10-17T19:33:49.541Z,101594.66
2022-10-17T19:37:51.441Z,101604.13
2022-10-17T19:41:53.429Z,101593.97
2022-10-17T19:45:57.247Z,101581.78
2022-10-17T19:49:59.138Z,101587.47
2022-10-17T19:54:01.421Z,101584.72
2022-10-17T19:58:03.370Z,101590.22
2022-10-17T20:02:05.072Z,101577.88
2022-10-17T20:06:07.297Z,101582.22
2022-10-17T20:10:09.396Z,101576.59
2022-10-17T20:14:11.274Z,101575.13
2022-10-17T20:18:12.962Z,101569.25
2022-10-17T20:22:14.807Z,101570.25
2022-10-17T20:26:33.185Z,101563.91
2022-10-17T20:30:46.483Z,101573.50
2022-10-17T20:34:48.415Z,101564.34
2022-10-17T20:38:57.893Z,101554.63
2022-10-17T20:42:59.627Z,101555.91
2022-10-17T20:47:02.717Z,101555.19
2022-10-17T20:51:09.154Z,101555.03
2022-10-17T20:55:11.045Z,101543.47
2022-10-17T20:59:14.989Z,101543.56
2022-10-17T21:03:16.771Z,101542.47
2022-10-17T21:07:18.620Z,101535.56
2022-10-17T21:11:22.948Z,101532.91
2022-10-17T21:15:24.653Z,101533.59
2022-10-17T21:19:26.408Z,101530.19
2022-10-17T21:23:28.109Z,101532.59
2022-10-17T21:27:30.028Z,101534.16
2022-10-17T21:31:36.987Z,101534.41
2022-10-17T21:35:39.046Z,101537.22
2022-10-17T21:39:40.747Z,101535.63
2022-10-17T21:43:43.588Z,101529.38
2022-10-17T21:48:11.126Z,101524.03
2022-10-17T21:52:07.236Z,101509.81
2022-10-17T21:56:14.998Z,101518.16
2022-10-17T22:00:17.093Z,101510.31
2022-10-17T22:04:19.582Z,101508.44
2022-10-17T22:08:21.394Z,101511.06
2022-10-17T22:12:23.454Z,101513.72
2022-10-17T22:16:25.547Z,101509.16
2022-10-17T22:20:27.401Z,101512.63
2022-10-17T22:24:29.293Z,101505.81
2022-10-17T22:28:31.623Z,101504.88
2022-10-17T22:32:33.273Z,101507.59
2022-10-17T22:36:35.818Z,101499.16
2022-10-17T22:40:37.442Z,101512.69
2022-10-17T22:44:39.272Z,101511.59
2022-10-17T22:48:40.971Z,101522.41
2022-10-17T22:52:42.718Z,101513.28
2022-10-17T22:56:44.268Z,101506.97
2022-10-17T23:00:46.716Z,101506.22
2022-10-17T23:04:48.304Z,101504.38
2022-10-17T23:08:50.598Z,101506.91
2022-10-17T23:12:52.227Z,101506.84
2022-10-17T23:16:54.060Z,101513.34
2022-10-17T23:20:55.966Z,101523.81
2022-10-17T23:24:57.895Z,101522.25
2022-10-17T23:29:00.157Z,101527.59
2022-10-17T23:33:03.044Z,101517.22
2022-10-17T23:37:04.763Z,101528.53
2022-10-17T23:41:06.877Z,101533.66
2022-10-17T23:45:08.956Z,101528.25
2022-10-17T23:49:11.365Z,101520.72
2022-10-17T23:53:12.984Z,101515.53
2022-10-17T23:57:14.888Z,101521.09
